sensor_id;sensor_type;location;lat;lon;timestamp;pressure;altitude;pressure_sealevel;temperature;humidity
7018;BME280;3549;42.162;24.726;2024-01-07T00:02:13;46208.50;;;-141.97;100.00
7018;BME280;3549;42.162;24.726;2024-01-07T00:04:40;46214.25;;;-141.97;100.00
7018;BME280;3549;42.162;24.726;2024-01-07T00:07:06;46031.75;;;-141.97;100.00
7018;BME280;3549;42.162;24.726;2024-01-07T00:09:31;45931.84;;;-141.97;100.00
7018;BME280;3549;42.162;24.726;2024-01-07T00:11:57;46145.09;;;-141.97;100.00
7018;BME280;3549;42.162;24.726;2024-01-07T00:14:22;45939.53;;;-141.97;100.00
7018;BME280;3549;42.162;24.726;2024-01-07T00:16:47;46077.84;;;-141.97;100.00
7018;BME280;3549;42.162;24.726;2024-01-07T00:19:13;46181.59;;;-141.97;100.00
7018;BME280;3549;42.162;24.726;2024-01-07T00:21:38;46406.41;;;-141.97;100.00
7018;BME280;3549;42.162;24.726;2024-01-07T00:24:04;45987.56;;;-141.97;100.00
7018;BME280;3549;42.162;24.726;2024-01-07T00:26:29;46487.09;;;-141.97;100.00
7018;BME280;3549;42.162;24.726;2024-01-07T00:28:55;46635.06;;;-141.97;100.00
7018;BME280;3549;42.162;24.726;2024-01-07T00:31:20;46231.56;;;-141.97;100.00
7018;BME280;3549;42.162;24.726;2024-01-07T00:33:46;46567.81;;;-141.97;100.00
7018;BME280;3549;42.162;24.726;2024-01-07T00:36:11;45976.03;;;-141.97;100.00
7018;BME280;3549;42.162;24.726;2024-01-07T00:38:37;46037.50;;;-141.97;100.00
7018;BME280;3549;42.162;24.726;2024-01-07T00:41:02;46198.91;;;-141.97;100.00
7018;BME280;3549;42.162;24.726;2024-01-07T00:43:27;46448.66;;;-141.97;100.00
7018;BME280;3549;42.162;24.726;2024-01-07T00:45:53;46477.50;;;-141.97;100.00
7018;BME280;3549;42.162;24.726;2024-01-07T00:48:18;45989.47;;;-141.97;100.00
7018;BME280;3549;42.162;24.726;2024-01-07T00:50:44;46462.13;;;-141.97;100.00
7018;BME280;3549;42.162;24.726;2024-01-07T00:53:09;46538.97;;;-141.97;100.00
7018;BME280;3549;42.162;24.726;2024-01-07T00:55:34;46062.47;;;-141.97;100.00
7018;BME280;3549;42.162;24.726;2024-01-07T00:58:03;46400.63;;;-141.97;100.00
7018;BME280;3549;42.162;24.726;2024-01-07T01:00:28;46456.34;;;-141.97;100.00
7018;BME280;3549;42.162;24.726;2024-01-07T01:02:54;46212.34;;;-141.97;100.00
7018;BME280;3549;42.162;24.726;2024-01-07T01:05:20;46562.03;;;-141.97;100.00
7018;BME280;3549;42.162;24.726;2024-01-07T01:07:45;46045.19;;;-141.97;100.00
7018;BME280;3549;42.162;24.726;2024-01-07T01:10:11;46187.38;;;-141.97;100.00
7018;BME280;3549;42.162;24.726;2024-01-07T01:12:36;46104.75;;;-141.97;100.00
7018;BME280;3549;42.162;24.726;2024-01-07T01:15:02;46181.59;;;-141.97;100.00
7018;BME280;3549;42.162;24.726;2024-01-07T01:17:27;46231.56;;;-141.97;100.00
7018;BME280;3549;42.162;24.726;2024-01-07T01:19:52;46108.59;;;-141.97;100.00
7018;BME280;3549;42.162;24.726;2024-01-07T01:22:18;46195.06;;;-141.97;100.00
7018;BME280;3549;42.162;24.726;2024-01-07T01:24:43;46089.38;;;-141.97;100.00
7018;BME280;3549;42.162;24.726;2024-01-07T01:27:11;46025.97;;;-141.97;100.00
7018;BME280;3549;42.162;24.726;2024-01-07T01:29:37;46037.50;;;-141.97;100.00
7018;BME280;3549;42.162;24.726;2024-01-07T01:32:02;45993.31;;;-141.97;100.00
7018;BME280;3549;42.162;24.726;2024-01-07T01:34:28;46139.34;;;-141.97;100.00
7018;BME280;3549;42.162;24.726;2024-01-07T01:36:53;46031.75;;;-141.97;100.00
7018;BME280;3549;42.162;24.726;2024-01-07T01:39:19;46085.53;;;-141.97;100.00
7018;BME280;3549;42.162;24.726;2024-01-07T01:41:44;46131.66;;;-141.97;100.00
7018;BME280;3549;42.162;24.726;2024-01-07T01:44:10;46104.75;;;-141.97;100.00
7018;BME280;3549;42.162;24.726;2024-01-07T01:46:35;45966.44;;;-141.97;100.00
7018;BME280;3549;42.162;24.726;2024-01-07T01:49:01;45897.25;;;-141.97;100.00
7018;BME280;3549;42.162;24.726;2024-01-07T01:51:27;46016.38;;;-141.97;100.00
7018;BME280;3549;42.162;24.726;2024-01-07T01:53:55;46367.97;;;-141.97;100.00
7018;BME280;3549;42.162;24.726;2024-01-07T01:56:24;46064.41;;;-141.97;100.00
7018;BME280;3549;42.162;24.726;2024-01-07T01:59:20;45904.94;;;-141.97;100.00
7018;BME280;3549;42.162;24.726;2024-01-07T02:01:57;45958.75;;;-141.97;100.00
7018;BME280;3549;42.162;24.726;2024-01-07T02:04:26;46033.66;;;-141.97;100.00
7018;BME280;3549;42.162;24.726;2024-01-07T02:06:55;46074.00;;;-141.97;100.00
7018;BME280;3549;42.162;24.726;2024-01-07T02:09:37;46135.50;;;-141.97;100.00
7018;BME280;3549;42.162;24.726;2024-01-07T02:12:25;46537.06;;;-141.97;100.00
7018;BME280;3549;42.162;24.726;2024-01-07T02:15:03;45851.16;;;-141.97;100.00
7018;BME280;3549;42.162;24.726;2024-01-07T02:17:34;45904.94;;;-141.97;100.00
7018;BME280;3549;42.162;24.726;2024-01-07T02:20:33;45943.38;;;-141.97;100.00
7018;BME280;3549;42.162;24.726;2024-01-07T02:23:23;46160.47;;;-141.97;100.00
7018;BME280;3549;42.162;24.726;2024-01-07T02:25:51;46089.38;;;-141.97;100.00
7018;BME280;3549;42.162;24.726;2024-01-07T02:28:16;46150.84;;;-141.97;100.00
7018;BME280;3549;42.162;24.726;2024-01-07T02:30:42;46158.53;;;-141.97;100.00
7018;BME280;3549;42.162;24.726;2024-01-07T02:33:10;46083.63;;;-141.97;100.00
7018;BME280;3549;42.162;24.726;2024-01-07T02:35:36;45920.31;;;-141.97;100.00
7018;BME280;3549;42.162;24.726;2024-01-07T02:38:01;46152.78;;;-141.97;100.00
7018;BME280;3549;42.162;24.726;2024-01-07T02:40:27;46560.13;;;-141.97;100.00
7018;BME280;3549;42.162;24.726;2024-01-07T02:42:52;45958.75;;;-141.97;100.00
7018;BME280;3549;42.162;24.726;2024-01-07T02:45:18;45904.94;;;-141.97;100.00
7018;BME280;3549;42.162;24.726;2024-01-07T02:47:44;46147.03;;;-141.97;100.00
7018;BME280;3549;42.162;24.726;2024-01-07T02:50:09;45947.22;;;-141.97;100.00
7018;BME280;3549;42.162;24.726;2024-01-07T02:52:35;46333.38;;;-141.97;100.00
7018;BME280;3549;42.162;24.726;2024-01-07T02:55:00;46027.91;;;-141.97;100.00
7018;BME280;3549;42.162;24.726;2024-01-07T02:57:27;46172.00;;;-141.97;100.00
7018;BME280;3549;42.162;24.726;2024-01-07T02:59:52;45962.59;;;-141.97;100.00
7018;BME280;3549;42.162;24.726;2024-01-07T03:02:21;46154.69;;;-141.97;100.00
7018;BME280;3549;42.162;24.726;2024-01-07T03:04:47;46150.84;;;-141.97;100.00
7018;BME280;3549;42.162;24.726;2024-01-07T03:07:12;45897.25;;;-141.97;100.00
7018;BME280;3549;42.162;24.726;2024-01-07T03:09:38;46083.63;;;-141.97;100.00
7018;BME280;3549;42.162;24.726;2024-01-07T03:12:04;46435.22;;;-141.97;100.00
7018;BME280;3549;42.162;24.726;2024-01-07T03:14:29;45952.97;;;-141.97;100.00
7018;BME280;3549;42.162;24.726;2024-01-07T03:16:55;46377.56;;;-141.97;100.00
7018;BME280;3549;42.162;24.726;2024-01-07T03:19:20;46047.13;;;-141.97;100.00
7018;BME280;3549;42.162;24.726;2024-01-07T03:21:48;46150.84;;;-141.97;100.00
7018;BME280;3549;42.162;24.726;2024-01-07T03:24:13;46419.84;;;-141.97;100.00
7018;BME280;3549;42.162;24.726;2024-01-07T03:26:39;45885.72;;;-141.97;100.00
7018;BME280;3549;42.162;24.726;2024-01-07T03:29:04;46172.00;;;-141.97;100.00
7018;BME280;3549;42.162;24.726;2024-01-07T03:31:30;46193.13;;;-141.97;100.00
7018;BME280;3549;42.162;24.726;2024-01-07T03:33:55;46123.97;;;-141.97;100.00
7018;BME280;3549;42.162;24.726;2024-01-07T03:36:24;46642.75;;;-141.97;100.00
7018;BME280;3549;42.162;24.726;2024-01-07T03:38:57;46008.69;;;-141.97;100.00
7018;BME280;3549;42.162;24.726;2024-01-07T03:41:34;46122.03;;;-141.97;100.00
7018;BME280;3549;42.162;24.726;2024-01-07T03:44:02;46515.91;;;-141.97;100.00
7018;BME280;3549;42.162;24.726;2024-01-07T03:46:28;46535.13;;;-141.97;100.00
7018;BME280;3549;42.162;24.726;2024-01-07T03:48:56;45995.25;;;-141.97;100.00
7018;BME280;3549;42.162;24.726;2024-01-07T03:51:21;46075.94;;;-141.97;100.00
7018;BME280;3549;42.162;24.726;2024-01-07T03:53:46;46525.53;;;-141.97;100.00
7018;BME280;3549;42.162;24.726;2024-01-07T03:56:12;46216.19;;;-141.97;100.00
7018;BME280;3549;42.162;24.726;2024-01-07T03:58:37;46585.09;;;-141.97;100.00
7018;BME280;3549;42.162;24.726;2024-01-07T04:01:03;45931.84;;;-141.97;100.00
7018;BME280;3549;42.162;24.726;2024-01-07T04:03:29;46108.59;;;-141.97;100.00
7018;BME280;3549;42.162;24.726;2024-01-07T04:05:54;46172.00;;;-141.97;100.00
7018;BME280;3549;42.162;24.726;2024-01-07T04:08:19;46610.06;;;-141.97;100.00
7018;BME280;3549;42.162;24.726;2024-01-07T04:10:45;46091.31;;;-141.97;100.00
7018;BME280;3549;42.162;24.726;2024-01-07T04:13:10;46531.28;;;-141.97;100.00
7018;BME280;3549;42.162;24.726;2024-01-07T04:15:36;46091.31;;;-141.97;100.00
7018;BME280;3549;42.162;24.726;2024-01-07T04:18:02;46195.06;;;-141.97;100.00
7018;BME280;3549;42.162;24.726;2024-01-07T04:20:28;46173.91;;;-141.97;100.00
7018;BME280;3549;42.162;24.726;2024-01-07T04:22:54;46010.63;;;-141.97;100.00
7018;BME280;3549;42.162;24.726;2024-01-07T04:25:20;46056.72;;;-141.97;100.00
7018;BME280;3549;42.162;24.726;2024-01-07T04:27:45;46185.44;;;-141.97;100.00
7018;BME280;3549;42.162;24.726;2024-01-07T04:30:11;46070.16;;;-141.97;100.00
7018;BME280;3549;42.162;24.726;2024-01-07T04:32:36;46024.06;;;-141.97;100.00
7018;BME280;3549;42.162;24.726;2024-01-07T04:35:02;46039.44;;;-141.97;100.00
7018;BME280;3549;42.162;24.726;2024-01-07T04:37:27;45958.75;;;-141.97;100.00
7018;BME280;3549;42.162;24.726;2024-01-07T04:39:53;46312.25;;;-141.97;100.00
7018;BME280;3549;42.162;24.726;2024-01-07T04:42:18;46464.03;;;-141.97;100.00
7018;BME280;3549;42.162;24.726;2024-01-07T04:44:44;46166.22;;;-141.97;100.00
7018;BME280;3549;42.162;24.726;2024-01-07T04:47:32;46204.66;;;-141.97;100.00
7018;BME280;3549;42.162;24.726;2024-01-07T04:50:00;46062.47;;;-141.97;100.00
7018;BME280;3549;42.162;24.726;2024-01-07T04:52:26;46158.53;;;-141.97;100.00
7018;BME280;3549;42.162;24.726;2024-01-07T04:54:55;46175.84;;;-141.97;100.00
7018;BME280;3549;42.162;24.726;2024-01-07T04:57:21;46512.06;;;-141.97;100.00
7018;BME280;3549;42.162;24.726;2024-01-07T04:59:48;46467.88;;;-141.97;100.00
7018;BME280;3549;42.162;24.726;2024-01-07T05:02:14;46560.13;;;-141.97;100.00
7018;BME280;3549;42.162;24.726;2024-01-07T05:04:40;46573.56;;;-141.97;100.00
7018;BME280;3549;42.162;24.726;2024-01-07T05:07:05;45926.06;;;-141.97;100.00
7018;BME280;3549;42.162;24.726;2024-01-07T05:09:32;46492.88;;;-141.97;100.00
7018;BME280;3549;42.162;24.726;2024-01-07T05:11:58;46504.38;;;-141.97;100.00
7018;BME280;3549;42.162;24.726;2024-01-07T05:14:23;46525.53;;;-141.97;100.00
7018;BME280;3549;42.162;24.726;2024-01-07T05:16:49;46087.47;;;-141.97;100.00
7018;BME280;3549;42.162;24.726;2024-01-07T05:19:24;46187.38;;;-141.97;100.00
7018;BME280;3549;42.162;24.726;2024-01-07T05:21:49;46448.66;;;-141.97;100.00
7018;BME280;3549;42.162;24.726;2024-01-07T05:24:15;46590.84;;;-141.97;100.00
7018;BME280;3549;42.162;24.726;2024-01-07T05:26:44;46177.75;;;-141.97;100.00
7018;BME280;3549;42.162;24.726;2024-01-07T05:29:10;46001.00;;;-141.97;100.00
7018;BME280;3549;42.162;24.726;2024-01-07T05:31:36;45964.50;;;-141.97;100.00
7018;BME280;3549;42.162;24.726;2024-01-07T05:34:02;46544.75;;;-141.97;100.00
7018;BME280;3549;42.162;24.726;2024-01-07T05:36:27;45866.53;;;-141.97;100.00
7018;BME280;3549;42.162;24.726;2024-01-07T05:38:53;46041.34;;;-141.97;100.00
7018;BME280;3549;42.162;24.726;2024-01-07T05:41:18;46001.00;;;-141.97;100.00
7018;BME280;3549;42.162;24.726;2024-01-07T05:43:44;45862.69;;;-141.97;100.00
7018;BME280;3549;42.162;24.726;2024-01-07T05:46:09;46020.22;;;-141.97;100.00
7018;BME280;3549;42.162;24.726;2024-01-07T05:48:49;46133.56;;;-141.97;100.00
7018;BME280;3549;42.162;24.726;2024-01-07T05:51:16;46139.34;;;-141.97;100.00
7018;BME280;3549;42.162;24.726;2024-01-07T05:53:44;46027.91;;;-141.97;100.00
7018;BME280;3549;42.162;24.726;2024-01-07T05:56:10;46458.28;;;-141.97;100.00
7018;BME280;3549;42.162;24.726;2024-01-07T05:58:35;45999.09;;;-141.97;100.00
7018;BME280;3549;42.162;24.726;2024-01-07T06:01:01;46654.28;;;-141.97;100.00
7018;BME280;3549;42.162;24.726;2024-01-07T06:03:27;46220.03;;;-141.97;100.00
7018;BME280;3549;42.162;24.726;2024-01-07T06:05:52;46638.91;;;-141.97;100.00
7018;BME280;3549;42.162;24.726;2024-01-07T06:08:18;46350.69;;;-141.97;100.00
7018;BME280;3549;42.162;24.726;2024-01-07T06:10:43;46070.16;;;-141.97;100.00
7018;BME280;3549;42.162;24.726;2024-01-07T06:13:09;46016.38;;;-141.97;100.00
7018;BME280;3549;42.162;24.726;2024-01-07T06:15:34;46108.59;;;-141.97;100.00
7018;BME280;3549;42.162;24.726;2024-01-07T06:17:59;46385.25;;;-141.97;100.00
7018;BME280;3549;42.162;24.726;2024-01-07T06:20:25;45993.31;;;-141.97;100.00
7018;BME280;3549;42.162;24.726;2024-01-07T06:22:50;46010.63;;;-141.97;100.00
7018;BME280;3549;42.162;24.726;2024-01-07T06:25:16;45985.63;;;-141.97;100.00
7018;BME280;3549;42.162;24.726;2024-01-07T06:27:42;46175.84;;;-141.97;100.00
7018;BME280;3549;42.162;24.726;2024-01-07T06:30:08;46546.66;;;-141.97;100.00
7018;BME280;3549;42.162;24.726;2024-01-07T06:32:34;46206.56;;;-141.97;100.00
7018;BME280;3549;42.162;24.726;2024-01-07T06:34:59;46427.53;;;-141.97;100.00
7018;BME280;3549;42.162;24.726;2024-01-07T06:37:25;46367.97;;;-141.97;100.00
7018;BME280;3549;42.162;24.726;2024-01-07T06:39:54;46154.69;;;-141.97;100.00
7018;BME280;3549;42.162;24.726;2024-01-07T06:42:19;46122.03;;;-141.97;100.00
7018;BME280;3549;42.162;24.726;2024-01-07T06:44:45;46310.31;;;-141.97;100.00
7018;BME280;3549;42.162;24.726;2024-01-07T06:47:10;46139.34;;;-141.97;100.00
7018;BME280;3549;42.162;24.726;2024-01-07T06:49:36;46064.41;;;-141.97;100.00
7018;BME280;3549;42.162;24.726;2024-01-07T06:52:02;46592.78;;;-141.97;100.00
7018;BME280;3549;42.162;24.726;2024-01-07T06:54:27;46492.88;;;-141.97;100.00
7018;BME280;3549;42.162;24.726;2024-01-07T06:56:52;46373.72;;;-141.97;100.00
7018;BME280;3549;42.162;24.726;2024-01-07T06:59:18;46496.72;;;-141.97;100.00
7018;BME280;3549;42.162;24.726;2024-01-07T07:01:43;46271.91;;;-141.97;100.00
7018;BME280;3549;42.162;24.726;2024-01-07T07:04:09;46496.72;;;-141.97;100.00
7018;BME280;3549;42.162;24.726;2024-01-07T07:06:34;46156.63;;;-141.97;100.00
7018;BME280;3549;42.162;24.726;2024-01-07T07:09:13;46508.22;;;-141.97;100.00
7018;BME280;3549;42.162;24.726;2024-01-07T07:11:40;46135.50;;;-141.97;100.00
7018;BME280;3549;42.162;24.726;2024-01-07T07:14:06;46083.63;;;-141.97;100.00
7018;BME280;3549;42.162;24.726;2024-01-07T07:16:31;45893.41;;;-141.97;100.00
7018;BME280;3549;42.162;24.726;2024-01-07T07:19:00;45962.59;;;-141.97;100.00
7018;BME280;3549;42.162;24.726;2024-01-07T07:21:26;45830.03;;;-141.97;100.00
7018;BME280;3549;42.162;24.726;2024-01-07T07:23:52;45912.63;;;-141.97;100.00
7018;BME280;3549;42.162;24.726;2024-01-07T07:26:18;45926.06;;;-141.97;100.00
7018;BME280;3549;42.162;24.726;2024-01-07T07:28:43;46485.19;;;-141.97;100.00
7018;BME280;3549;42.162;24.726;2024-01-07T07:31:11;46392.94;;;-141.97;100.00
7018;BME280;3549;42.162;24.726;2024-01-07T07:33:38;46642.75;;;-141.97;100.00
7018;BME280;3549;42.162;24.726;2024-01-07T07:36:04;45803.13;;;-141.97;100.00
7018;BME280;3549;42.162;24.726;2024-01-07T07:38:30;45901.09;;;-141.97;100.00
7018;BME280;3549;42.162;24.726;2024-01-07T07:40:55;46172.00;;;-141.97;100.00
7018;BME280;3549;42.162;24.726;2024-01-07T07:43:21;46362.22;;;-141.97;100.00
7018;BME280;3549;42.162;24.726;2024-01-07T07:45:47;46122.03;;;-141.97;100.00
7018;BME280;3549;42.162;24.726;2024-01-07T07:48:13;45914.56;;;-141.97;100.00
7018;BME280;3549;42.162;24.726;2024-01-07T07:50:38;46108.59;;;-141.97;100.00
7018;BME280;3549;42.162;24.726;2024-01-07T07:53:05;46070.16;;;-141.97;100.00
7018;BME280;3549;42.162;24.726;2024-01-07T07:55:31;45885.72;;;-141.97;100.00
7018;BME280;3549;42.162;24.726;2024-01-07T07:57:56;45939.53;;;-141.97;100.00
7018;BME280;3549;42.162;24.726;2024-01-07T08:00:23;45872.28;;;-141.97;100.00
7018;BME280;3549;42.162;24.726;2024-01-07T08:02:51;46056.72;;;-141.97;100.00
7018;BME280;3549;42.162;24.726;2024-01-07T08:05:19;46360.28;;;-141.97;100.00
7018;BME280;3549;42.162;24.726;2024-01-07T08:07:47;46160.47;;;-141.97;100.00
7018;BME280;3549;42.162;24.726;2024-01-07T08:10:13;46099.00;;;-141.97;100.00
7018;BME280;3549;42.162;24.726;2024-01-07T08:12:41;46485.19;;;-141.97;100.00
7018;BME280;3549;42.162;24.726;2024-01-07T08:15:09;46043.28;;;-141.97;100.00
7018;BME280;3549;42.162;24.726;2024-01-07T08:17:35;46429.47;;;-141.97;100.00
7018;BME280;3549;42.162;24.726;2024-01-07T08:20:00;46496.72;;;-141.97;100.00
7018;BME280;3549;42.162;24.726;2024-01-07T08:22:41;46093.22;;;-141.97;100.00
7018;BME280;3549;42.162;24.726;2024-01-07T08:25:13;46116.28;;;-141.97;100.00
7018;BME280;3549;42.162;24.726;2024-01-07T08:27:47;46515.91;;;-141.97;100.00
7018;BME280;3549;42.162;24.726;2024-01-07T08:37:10;46112.44;;;-141.97;100.00
7018;BME280;3549;42.162;24.726;2024-01-07T08:39:42;46027.91;;;-141.97;100.00
7018;BME280;3549;42.162;24.726;2024-01-07T08:42:07;46373.72;;;-141.97;100.00
7018;BME280;3549;42.162;24.726;2024-01-07T08:44:34;46072.09;;;-141.97;100.00
7018;BME280;3549;42.162;24.726;2024-01-07T08:47:00;45866.53;;;-141.97;100.00
7018;BME280;3549;42.162;24.726;2024-01-07T08:49:27;46427.53;;;-141.97;100.00
7018;BME280;3549;42.162;24.726;2024-01-07T08:51:53;45835.78;;;-141.97;100.00
7018;BME280;3549;42.162;24.726;2024-01-07T08:54:20;46293.03;;;-141.97;100.00
7018;BME280;3549;42.162;24.726;2024-01-07T08:56:46;45897.25;;;-141.97;100.00
7018;BME280;3549;42.162;24.726;2024-01-07T08:59:11;45791.59;;;-141.97;100.00
7018;BME280;3549;42.162;24.726;2024-01-07T09:01:37;45851.16;;;-141.97;100.00
7018;BME280;3549;42.162;24.726;2024-01-07T09:07:00;45753.19;;;-141.97;100.00
7018;BME280;3549;42.162;24.726;2024-01-07T09:09:25;46300.72;;;-141.97;100.00
7018;BME280;3549;42.162;24.726;2024-01-07T09:11:55;45912.63;;;-141.97;100.00
7018;BME280;3549;42.162;24.726;2024-01-07T09:14:32;45954.91;;;-141.97;100.00
7018;BME280;3549;42.162;24.726;2024-01-07T09:16:58;45878.06;;;-141.97;100.00
7018;BME280;3549;42.162;24.726;2024-01-07T09:19:23;46285.34;;;-141.97;100.00
7018;BME280;3549;42.162;24.726;2024-01-07T09:21:49;45881.91;;;-141.97;100.00
7018;BME280;3549;42.162;24.726;2024-01-07T09:24:14;46400.63;;;-141.97;100.00
7018;BME280;3549;42.162;24.726;2024-01-07T09:26:40;45853.06;;;-141.97;100.00
7018;BME280;3549;42.162;24.726;2024-01-07T09:29:05;46289.19;;;-141.97;100.00
7018;BME280;3549;42.162;24.726;2024-01-07T09:31:30;46235.41;;;-141.97;100.00
7018;BME280;3549;42.162;24.726;2024-01-07T09:33:56;45774.31;;;-141.97;100.00
7018;BME280;3549;42.162;24.726;2024-01-07T09:36:21;45697.47;;;-141.97;100.00
7018;BME280;3549;42.162;24.726;2024-01-07T09:38:47;45970.25;;;-141.97;100.00
7018;BME280;3549;42.162;24.726;2024-01-07T09:41:13;46001.00;;;-141.97;100.00
7018;BME280;3549;42.162;24.726;2024-01-07T09:43:38;46421.78;;;-141.97;100.00
7018;BME280;3549;42.162;24.726;2024-01-07T09:46:24;46431.38;;;-141.97;100.00
7018;BME280;3549;42.162;24.726;2024-01-07T09:48:52;45872.28;;;-141.97;100.00
7018;BME280;3549;42.162;24.726;2024-01-07T09:51:22;45812.72;;;-141.97;100.00
7018;BME280;3549;42.162;24.726;2024-01-07T09:53:48;45816.56;;;-141.97;100.00
7018;BME280;3549;42.162;24.726;2024-01-07T09:56:25;46285.34;;;-141.97;100.00
7018;BME280;3549;42.162;24.726;2024-01-07T09:58:50;46279.59;;;-141.97;100.00
7018;BME280;3549;42.162;24.726;2024-01-07T10:01:19;46367.97;;;-141.97;100.00
7018;BME280;3549;42.162;24.726;2024-01-07T10:03:45;46200.81;;;-141.97;100.00
7018;BME280;3549;42.162;24.726;2024-01-07T10:06:11;46004.84;;;-141.97;100.00
7018;BME280;3549;42.162;24.726;2024-01-07T10:08:38;45947.22;;;-141.97;100.00
7018;BME280;3549;42.162;24.726;2024-01-07T10:11:04;46227.72;;;-141.97;100.00
7018;BME280;3549;42.162;24.726;2024-01-07T10:13:30;46391.03;;;-141.97;100.00
7018;BME280;3549;42.162;24.726;2024-01-07T10:15:56;46293.03;;;-141.97;100.00
7018;BME280;3549;42.162;24.726;2024-01-07T10:18:22;45951.06;;;-141.97;100.00
7018;BME280;3549;42.162;24.726;2024-01-07T10:20:48;45755.09;;;-141.97;100.00
7018;BME280;3549;42.162;24.726;2024-01-07T10:23:19;46035.59;;;-141.97;100.00
7018;BME280;3549;42.162;24.726;2024-01-07T10:25:52;45676.34;;;-141.97;100.00
7018;BME280;3549;42.162;24.726;2024-01-07T10:28:20;46218.09;;;-141.97;100.00
7018;BME280;3549;42.162;24.726;2024-01-07T10:30:49;45805.06;;;-141.97;100.00
7018;BME280;3549;42.162;24.726;2024-01-07T10:33:17;45891.50;;;-141.97;100.00
7018;BME280;3549;42.162;24.726;2024-01-07T10:35:48;45879.97;;;-141.97;100.00
7018;BME280;3549;42.162;24.726;2024-01-07T10:38:32;45772.41;;;-141.97;100.00
7018;BME280;3549;42.162;24.726;2024-01-07T10:41:09;46319.94;;;-141.97;100.00
7018;BME280;3549;42.162;24.726;2024-01-07T10:43:38;45878.06;;;-141.97;100.00
7018;BME280;3549;42.162;24.726;2024-01-07T10:46:04;45791.59;;;-141.97;100.00
7018;BME280;3549;42.162;24.726;2024-01-07T10:48:31;46354.53;;;-141.97;100.00
7018;BME280;3549;42.162;24.726;2024-01-07T10:51:02;46193.13;;;-141.97;100.00
7018;BME280;3549;42.162;24.726;2024-01-07T10:56:24;45860.75;;;-141.97;100.00
7018;BME280;3549;42.162;24.726;2024-01-07T10:58:52;45701.31;;;-141.97;100.00
7018;BME280;3549;42.162;24.726;2024-01-07T11:01:19;45881.91;;;-141.97;100.00
7018;BME280;3549;42.162;24.726;2024-01-07T11:04:17;45795.44;;;-141.97;100.00
7018;BME280;3549;42.162;24.726;2024-01-07T11:06:57;45868.44;;;-141.97;60.77
7018;BME280;3549;42.162;24.726;2024-01-07T11:11:59;45881.91;;;-141.97;57.20
7018;BME280;3549;42.162;24.726;2024-01-07T11:14:39;45876.13;;;-141.97;54.66
7018;BME280;3549;42.162;24.726;2024-01-07T11:17:06;45872.28;;;-141.97;54.43
7018;BME280;3549;42.162;24.726;2024-01-07T11:19:32;45856.91;;;-141.97;53.86
7018;BME280;3549;42.162;24.726;2024-01-07T11:22:22;45858.84;;;-141.97;52.57
7018;BME280;3549;42.162;24.726;2024-01-07T11:24:50;45810.81;;;-141.97;53.89
7018;BME280;3549;42.162;24.726;2024-01-07T11:27:16;45879.97;;;-141.97;54.26
7018;BME280;3549;42.162;24.726;2024-01-07T11:29:42;45862.69;;;-141.97;54.04
7018;BME280;3549;42.162;24.726;2024-01-07T11:32:07;45849.25;;;-141.97;55.46
7018;BME280;3549;42.162;24.726;2024-01-07T11:34:42;45874.22;;;-141.97;56.08
7018;BME280;3549;42.162;24.726;2024-01-07T11:37:12;45866.53;;;-141.97;57.14
7018;BME280;3549;42.162;24.726;2024-01-07T11:39:42;45849.25;;;-141.97;56.95
7018;BME280;3549;42.162;24.726;2024-01-07T11:42:08;45872.28;;;-141.97;57.99
7018;BME280;3549;42.162;24.726;2024-01-07T11:44:34;45881.91;;;-141.97;57.64
7018;BME280;3549;42.162;24.726;2024-01-07T11:47:03;46298.81;;;-141.97;57.83
7018;BME280;3549;42.162;24.726;2024-01-07T11:49:28;45835.78;;;-141.97;56.91
7018;BME280;3549;42.162;24.726;2024-01-07T11:51:54;45612.94;;;-141.97;56.62
7018;BME280;3549;42.162;24.726;2024-01-07T11:54:19;46060.56;;;-141.97;55.63
7018;BME280;3549;42.162;24.726;2024-01-07T11:56:45;45945.28;;;-141.97;56.27
7018;BME280;3549;42.162;24.726;2024-01-07T11:59:10;46308.41;;;-141.97;56.49
7018;BME280;3549;42.162;24.726;2024-01-07T12:01:36;45797.38;;;-141.97;56.28
7018;BME280;3549;42.162;24.726;2024-01-07T12:04:01;45701.31;;;-141.97;56.97
7018;BME280;3549;42.162;24.726;2024-01-07T12:06:27;45733.97;;;-141.97;57.29
7018;BME280;3549;42.162;24.726;2024-01-07T12:08:55;45605.25;;;-141.97;56.85
7018;BME280;3549;42.162;24.726;2024-01-07T12:11:21;46154.69;;;-141.97;57.22
7018;BME280;3549;42.162;24.726;2024-01-07T12:13:46;46104.75;;;-141.97;57.39
7018;BME280;3549;42.162;24.726;2024-01-07T12:16:12;46166.22;;;-141.97;57.49
7018;BME280;3549;42.162;24.726;2024-01-07T12:18:41;46264.22;;;-141.97;56.94
7018;BME280;3549;42.162;24.726;2024-01-07T12:21:07;46204.66;;;-141.97;58.16
7018;BME280;3549;42.162;24.726;2024-01-07T12:23:41;45747.41;;;-141.97;60.15
7018;BME280;3549;42.162;24.726;2024-01-07T12:26:30;45645.59;;;-141.97;62.59
7018;BME280;3549;42.162;24.726;2024-01-07T12:28:59;46177.75;;;-141.97;64.36
7018;BME280;3549;42.162;24.726;2024-01-07T12:31:31;45906.88;;;-141.97;65.67
7018;BME280;3549;42.162;24.726;2024-01-07T12:33:57;45947.22;;;-141.97;66.12
7018;BME280;3549;42.162;24.726;2024-01-07T12:36:23;46227.72;;;-141.97;65.64
7018;BME280;3549;42.162;24.726;2024-01-07T12:38:49;45710.91;;;-141.97;64.88
7018;BME280;3549;42.162;24.726;2024-01-07T12:41:17;45843.47;;;-141.97;64.11
7018;BME280;3549;42.162;24.726;2024-01-07T12:43:43;45853.06;;;-141.97;64.78
7018;BME280;3549;42.162;24.726;2024-01-07T12:46:08;45709.00;;;-141.97;64.09
7018;BME280;3549;42.162;24.726;2024-01-07T12:48:34;46246.94;;;-141.97;64.34
7018;BME280;3549;42.162;24.726;2024-01-07T12:51:00;46177.75;;;-141.97;65.04
7018;BME280;3549;42.162;24.726;2024-01-07T12:53:26;45732.06;;;-141.97;65.50
7018;BME280;3549;42.162;24.726;2024-01-07T12:55:52;45757.03;;;-141.97;65.40
7018;BME280;3549;42.162;24.726;2024-01-07T12:58:18;46296.88;;;-141.97;65.99